createdAt,value
2022-12-31T00:01:43.995Z,100.00
2022-12-31T00:04:15.265Z,100.00
2022-12-31T00:06:45.977Z,100.00
2022-12-31T00:09:15.701Z,100.00
2022-12-31T00:11:45.538Z,99.55
2022-12-31T00:14:16.076Z,100.00
2022-12-31T00:16:45.879Z,100.00
2022-12-31T00:19:15.662Z,100.00
2022-12-31T00:21:45.459Z,100.00
2022-12-31T00:24:15.048Z,99.26
2022-12-31T00:26:45.079Z,100.00
2022-12-31T00:29:14.816Z,100.00
2022-12-31T00:31:44.560Z,100.00
2022-12-31T00:34:15.687Z,100.00
2022-12-31T00:36:46.125Z,100.00
2022-12-31T00:39:15.920Z,100.00
2022-12-31T00:41:45.680Z,99.92
2022-12-31T00:44:16.341Z,100.00
2022-12-31T00:46:46.124Z,100.00
2022-12-31T00:49:16.241Z,100.00
2022-12-31T00:51:46.801Z,100.00
2022-12-31T00:54:16.717Z,100.00
2022-12-31T00:56:46.539Z,100.00
2022-12-31T00:59:16.284Z,100.00
2022-12-31T01:01:46.590Z,100.00
2022-12-31T01:04:18.891Z,100.00
2022-12-31T01:06:49.106Z,100.00
2022-12-31T01:09:19.338Z,100.00
2022-12-31T01:11:51.390Z,100.00
2022-12-31T01:14:21.591Z,100.00
2022-12-31T01:16:53.242Z,100.00
2022-12-31T01:19:26.066Z,100.00
2022-12-31T01:21:56.652Z,100.00
2022-12-31T01:24:26.562Z,100.00
2022-12-31T01:26:57.882Z,100.00
2022-12-31T01:29:28.214Z,100.00
2022-12-31T01:31:58.105Z,100.00
2022-12-31T01:34:27.897Z,100.00
2022-12-31T01:36:57.726Z,100.00
2022-12-31T01:39:27.461Z,100.00
2022-12-31T01:41:57.318Z,100.00
2022-12-31T01:44:30.123Z,99.38
2022-12-31T01:47:02.762Z,99.90
2022-12-31T01:49:41.455Z,99.79
2022-12-31T01:52:17.636Z,99.89
2022-12-31T01:54:56.454Z,100.00
2022-12-31T01:57:27.546Z,99.99
2022-12-31T01:59:59.791Z,99.48
2022-12-31T02:02:30.447Z,100.00
2022-12-31T02:05:03.461Z,100.00
2022-12-31T02:07:33.218Z,99.94
2022-12-31T02:10:03.956Z,100.00
2022-12-31T02:12:33.636Z,100.00
2022-12-31T02:15:03.553Z,100.00
2022-12-31T02:17:50.972Z,100.00
2022-12-31T02:20:33.100Z,100.00
2022-12-31T02:23:38.512Z,100.00
2022-12-31T02:26:19.977Z,100.00
2022-12-31T02:29:25.336Z,100.00
2022-12-31T02:32:01.082Z,100.00
2022-12-31T02:34:33.846Z,100.00
2022-12-31T02:37:06.566Z,99.93
2022-12-31T02:39:37.401Z,99.75
2022-12-31T02:42:08.409Z,99.12
2022-12-31T02:44:39.871Z,99.71
2022-12-31T02:47:12.624Z,99.45
2022-12-31T02:53:26.979Z,99.21
2022-12-31T02:56:05.601Z,98.47
2022-12-31T02:59:12.280Z,99.12
2022-12-31T03:02:02.851Z,99.05
2022-12-31T03:04:35.716Z,98.50
2022-12-31T03:07:08.496Z,98.79
2022-12-31T03:09:38.953Z,98.09
2022-12-31T03:12:28.586Z,98.69
2022-12-31T03:14:59.059Z,98.54
2022-12-31T03:17:29.087Z,98.48
2022-12-31T03:20:16.686Z,97.84
2022-12-31T03:22:46.611Z,97.52
2022-12-31T03:25:35.412Z,98.33
2022-12-31T03:28:09.209Z,98.34
2022-12-31T03:30:41.551Z,98.22
2022-12-31T03:33:11.623Z,98.29
2022-12-31T03:35:43.298Z,98.03
2022-12-31T03:38:15.123Z,97.92
2022-12-31T03:40:47.966Z,98.29
2022-12-31T03:43:19.232Z,97.23
2022-12-31T03:45:55.731Z,97.10
2022-12-31T03:48:25.349Z,96.92
2022-12-31T03:50:55.135Z,97.36
2022-12-31T03:53:24.957Z,97.93
2022-12-31T03:55:55.595Z,99.03
2022-12-31T03:58:25.350Z,98.84
2022-12-31T04:00:55.216Z,99.44
2022-12-31T04:03:25.201Z,98.19
2022-12-31T04:05:56.348Z,98.46
2022-12-31T04:08:26.135Z,98.05
2022-12-31T04:10:55.863Z,97.69
2022-12-31T04:13:25.633Z,96.65
2022-12-31T04:15:55.609Z,96.62
2022-12-31T04:18:25.424Z,96.34
2022-12-31T04:20:55.124Z,96.45
2022-12-31T04:23:24.864Z,96.42
2022-12-31T04:25:55.182Z,98.86
2022-12-31T04:28:25.604Z,99.09
2022-12-31T04:30:55.344Z,97.73
2022-12-31T04:33:25.377Z,98.43
2022-12-31T04:35:56.627Z,98.39
2022-12-31T04:38:26.341Z,98.43
2022-12-31T04:41:13.936Z,97.47
2022-12-31T04:43:44.990Z,97.90
2022-12-31T04:46:15.592Z,98.42
2022-12-31T04:48:45.479Z,97.17
2022-12-31T04:51:16.050Z,97.17
2022-12-31T04:53:45.931Z,96.75
2022-12-31T04:56:16.168Z,97.95
2022-12-31T04:58:46.635Z,97.21
2022-12-31T05:01:16.758Z,98.15
2022-12-31T05:03:47.736Z,97.78
2022-12-31T05:06:20.214Z,98.12
2022-12-31T05:08:50.671Z,99.69
2022-12-31T05:11:20.405Z,100.00
2022-12-31T05:13:50.182Z,100.00
2022-12-31T05:16:19.999Z,100.00
2022-12-31T05:18:49.731Z,100.00
2022-12-31T05:21:22.004Z,100.00
2022-12-31T05:23:51.805Z,100.00
2022-12-31T05:26:21.423Z,100.00
2022-12-31T05:28:51.146Z,100.00
2022-12-31T05:31:20.890Z,100.00
2022-12-31T05:33:50.612Z,100.00
2022-12-31T05:36:20.420Z,100.00
2022-12-31T05:38:50.151Z,100.00
2022-12-31T05:41:19.863Z,100.00
2022-12-31T05:43:50.962Z,100.00
2022-12-31T05:46:20.761Z,100.00
2022-12-31T05:48:50.507Z,100.00
2022-12-31T05:51:20.220Z,100.00
2022-12-31T05:53:50.038Z,100.00
2022-12-31T05:56:20.429Z,100.00
2022-12-31T05:58:50.241Z,100.00
2022-12-31T06:01:20.096Z,100.00
2022-12-31T06:03:49.986Z,100.00
2022-12-31T06:06:19.782Z,100.00
2022-12-31T06:08:53.429Z,100.00
2022-12-31T06:11:23.146Z,100.00
2022-12-31T06:13:52.862Z,100.00
2022-12-31T06:16:22.476Z,100.00
2022-12-31T06:18:52.328Z,100.00
2022-12-31T06:21:23.328Z,100.00
2022-12-31T06:23:53.042Z,100.00
2022-12-31T06:26:22.794Z,100.00
2022-12-31T06:28:53.315Z,100.00
2022-12-31T06:31:23.107Z,100.00
2022-12-31T06:33:52.861Z,100.00
2022-12-31T06:36:22.909Z,100.00
2022-12-31T06:38:52.629Z,100.00
2022-12-31T06:41:22.815Z,100.00
2022-12-31T06:43:52.617Z,100.00
2022-12-31T06:46:22.393Z,100.00
2022-12-31T06:48:52.188Z,100.00
2022-12-31T06:51:23.642Z,100.00
2022-12-31T06:53:55.937Z,100.00
2022-12-31T06:56:33.852Z,100.00
2022-12-31T06:59:01.089Z,100.00
2022-12-31T07:01:33.985Z,100.00
2022-12-31T07:04:14.749Z,100.00
2022-12-31T07:07:04.639Z,100.00
2022-12-31T07:09:52.816Z,100.00
2022-12-31T07:12:28.364Z,100.00
2022-12-31T07:15:03.782Z,100.00
2022-12-31T07:17:51.213Z,100.00
2022-12-31T07:20:21.570Z,100.00
2022-12-31T07:22:51.531Z,100.00
2022-12-31T07:25:23.420Z,100.00
2022-12-31T07:28:18.236Z,100.00
2022-12-31T07:30:53.745Z,100.00
2022-12-31T07:33:41.530Z,100.00
2022-12-31T07:36:33.493Z,100.00
2022-12-31T07:39:18.031Z,100.00
2022-12-31T07:41:51.046Z,100.00
2022-12-31T07:44:35.689Z,100.00
2022-12-31T07:47:08.195Z,100.00
2022-12-31T07:49:40.960Z,100.00
2022-12-31T07:52:11.612Z,100.00
2022-12-31T07:54:41.627Z,100.00
2022-12-31T07:57:14.120Z,100.00
2022-12-31T08:00:01.581Z,100.00
2022-12-31T08:02:36.148Z,100.00
2022-12-31T08:05:26.551Z,100.00
2022-12-31T08:08:05.400Z,100.00
2022-12-31T08:11:09.140Z,100.00
2022-12-31T08:13:40.626Z,100.00
2022-12-31T08:16:13.224Z,100.00
2022-12-31T08:18:43.304Z,100.00
2022-12-31T08:21:29.500Z,100.00
2022-12-31T08:24:05.079Z,100.00
2022-12-31T08:27:07.696Z,100.00
2022-12-31T08:29:49.373Z,100.00
2022-12-31T08:32:24.948Z,100.00
2022-12-31T08:35:12.452Z,100.00
2022-12-31T08:37:45.131Z,100.00
2022-12-31T08:40:26.698Z,100.00
2022-12-31T08:43:14.489Z,100.00
2022-12-31T08:45:50.144Z,100.00
2022-12-31T08:48:43.217Z,100.00
2022-12-31T08:51:26.881Z,100.00
2022-12-31T08:53:57.184Z,100.00
2022-12-31T08:56:37.276Z,100.00
2022-12-31T08:59:30.604Z,100.00
2022-12-31T09:02:19.398Z,100.00
2022-12-31T09:05:12.184Z,100.00
2022-12-31T09:08:06.000Z,100.00
2022-12-31T09:10:56.719Z,100.00
2022-12-31T09:13:34.759Z,100.00
2022-12-31T09:16:21.731Z,100.00
2022-12-31T09:18:51.503Z,100.00
2022-12-31T09:21:21.414Z,100.00
2022-12-31T09:23:51.539Z,100.00
2022-12-31T09:26:42.357Z,99.12
2022-12-31T09:29:15.135Z,97.89
2022-12-31T09:31:54.277Z,97.49
2022-12-31T09:34:30.094Z,97.77
2022-12-31T09:37:02.661Z,96.60
2022-12-31T09:39:47.059Z,97.45
2022-12-31T09:42:19.837Z,97.48
2022-12-31T09:45:07.293Z,96.12
2022-12-31T09:47:58.067Z,95.43
2022-12-31T09:50:55.903Z,95.20
2022-12-31T09:53:31.612Z,95.11
2022-12-31T09:56:07.001Z,95.52
2022-12-31T09:58:55.595Z,96.98
2022-12-31T10:01:31.099Z,97.96
2022-12-31T10:04:36.506Z,98.29
2022-12-31T10:07:37.711Z,98.61
2022-12-31T10:10:25.456Z,99.28
2022-12-31T10:13:04.022Z,100.00
2022-12-31T10:15:59.086Z,99.26
2022-12-31T10:18:53.372Z,98.14
2022-12-31T10:21:47.416Z,98.14
2022-12-31T10:24:26.327Z,98.15
2022-12-31T10:27:19.327Z,97.90
2022-12-31T10:29:58.524Z,99.18
2022-12-31T10:32:49.575Z,99.70
2022-12-31T10:36:01.433Z,99.78
2022-12-31T10:41:57.449Z,99.11
2022-12-31T10:44:35.941Z,98.34
2022-12-31T10:47:31.717Z,99.00
2022-12-31T10:50:35.604Z,99.56
2022-12-31T10:53:27.945Z,99.76
2022-12-31T10:56:37.596Z,98.42
2022-12-31T10:59:21.280Z,98.95
2022-12-31T11:01:58.284Z,98.70
2022-12-31T11:04:51.452Z,98.23
2022-12-31T11:07:44.796Z,97.71
2022-12-31T11:10:43.054Z,96.45
2022-12-31T11:13:30.967Z,96.18
2022-12-31T11:16:12.032Z,96.26
2022-12-31T11:19:02.686Z,96.02
2022-12-31T11:21:50.666Z,94.23
2022-12-31T11:24:56.019Z,93.72
2022-12-31T11:28:00.927Z,93.65
2022-12-31T11:30:42.978Z,93.15
2022-12-31T11:33:35.379Z,92.13
2022-12-31T11:36:40.741Z,90.50
2022-12-31T11:39:24.588Z,90.50
2022-12-31T11:44:58.555Z,89.03
2022-12-31T11:48:29.239Z,88.52
2022-12-31T11:54:03.814Z,86.84
2022-12-31T11:56:36.878Z,86.71
2022-12-31T11:59:14.346Z,86.23
2022-12-31T12:01:47.154Z,85.62
2022-12-31T12:04:17.170Z,85.62
2022-12-31T12:06:46.961Z,85.26
2022-12-31T12:09:22.063Z,86.12
2022-12-31T12:12:01.843Z,85.50
2022-12-31T12:14:35.431Z,87.50
2022-12-31T12:17:11.036Z,90.03
2022-12-31T12:19:47.019Z,89.72
2022-12-31T12:22:25.641Z,90.93
2022-12-31T12:25:04.575Z,90.92
2022-12-31T12:27:36.535Z,91.30
2022-12-31T12:30:21.510Z,90.45
2022-12-31T12:33:04.743Z,91.18
2022-12-31T12:35:39.490Z,90.81
2022-12-31T12:38:24.687Z,90.81
2022-12-31T12:40:58.737Z,91.41
2022-12-31T12:43:34.315Z,92.82
2022-12-31T12:46:22.436Z,92.53
2022-12-31T12:48:57.601Z,92.95
2022-12-31T12:51:50.083Z,92.95
2022-12-31T12:54:31.767Z,91.36
2022-12-31T12:57:26.933Z,91.57
2022-12-31T13:00:11.690Z,90.90
2022-12-31T13:03:02.417Z,90.48
2022-12-31T13:05:53.435Z,91.22
2022-12-31T13:08:35.016Z,91.02
2022-12-31T13:11:15.336Z,91.21
2022-12-31T13:13:48.214Z,90.00
2022-12-31T13:16:22.327Z,89.75
2022-12-31T13:19:06.976Z,89.46
2022-12-31T13:21:58.034Z,88.56
2022-12-31T13:24:42.742Z,88.58
2022-12-31T13:27:45.627Z,88.75
2022-12-31T13:30:18.333Z,89.07
2022-12-31T13:32:51.157Z,88.97
2022-12-31T13:35:26.621Z,88.28
2022-12-31T13:38:05.939Z,89.03
2022-12-31T13:40:53.166Z,88.78
2022-12-31T13:43:45.851Z,89.05
2022-12-31T13:46:31.057Z,89.42
2022-12-31T13:49:03.926Z,88.81
2022-12-31T13:51:45.530Z,88.15
2022-12-31T13:54:23.759Z,88.54
2022-12-31T13:56:55.136Z,87.55
2022-12-31T13:59:30.891Z,86.25
2022-12-31T14:02:04.685Z,86.25
2022-12-31T14:04:52.518Z,86.55
2022-12-31T14:07:29.190Z,85.15
2022-12-31T14:09:56.982Z,84.36
2022-12-31T14:12:44.040Z,82.88
2022-12-31T14:15:37.500Z,81.97
2022-12-31T14:18:26.186Z,81.29
2022-12-31T14:21:01.523Z,79.43
2022-12-31T14:23:56.735Z,79.21
2022-12-31T14:26:29.542Z,78.96
2022-12-31T14:29:08.732Z,78.96
2022-12-31T14:31:52.236Z,78.38
2022-12-31T14:34:25.075Z,77.47
2022-12-31T14:37:00.452Z,76.86
2022-12-31T14:39:42.136Z,76.31
2022-12-31T14:42:35.481Z,76.21
2022-12-31T14:45:42.239Z,76.98
2022-12-31T14:48:47.332Z,75.10
2022-12-31T14:51:17.435Z,75.45
2022-12-31T14:53:54.978Z,75.83
2022-12-31T14:56:42.481Z,74.51
2022-12-31T14:59:32.221Z,75.37
2022-12-31T15:02:02.076Z,74.27
2022-12-31T15:04:34.946Z,75.31
2022-12-31T15:07:10.242Z,73.69
2022-12-31T15:10:07.932Z,74.20
2022-12-31T15:13:03.219Z,73.34
2022-12-31T15:15:59.592Z,73.66
2022-12-31T15:18:44.387Z,73.47
2022-12-31T15:21:34.965Z,74.38
2022-12-31T15:24:24.437Z,73.27
2022-12-31T15:26:57.372Z,74.00
2022-12-31T15:29:33.107Z,74.24
2022-12-31T15:32:05.773Z,74.11
2022-12-31T15:34:37.384Z,74.21
2022-12-31T15:37:10.498Z,73.16
2022-12-31T15:39:44.259Z,73.16
2022-12-31T15:42:39.882Z,74.57
2022-12-31T15:45:12.056Z,72.81
2022-12-31T15:47:46.586Z,72.72
2022-12-31T15:50:22.393Z,72.11
2022-12-31T15:52:54.844Z,73.30
2022-12-31T15:55:43.824Z,73.42
2022-12-31T15:58:19.364Z,73.00
2022-12-31T16:01:00.465Z,73.14
2022-12-31T16:03:32.654Z,71.87
2022-12-31T16:06:05.519Z,71.09
2022-12-31T16:08:36.885Z,72.72
2022-12-31T16:11:08.777Z,72.34
2022-12-31T16:13:41.716Z,71.59
2022-12-31T16:16:26.284Z,71.79
2022-12-31T16:18:57.308Z,71.55
2022-12-31T16:21:30.464Z,72.50
2022-12-31T16:24:09.245Z,72.46
2022-12-31T16:26:47.784Z,71.46
2022-12-31T16:29:20.228Z,71.64
2022-12-31T16:31:53.048Z,72.02
2022-12-31T16:34:25.734Z,70.95
2022-12-31T16:36:59.227Z,71.17
2022-12-31T16:39:37.109Z,70.36
2022-12-31T16:42:16.463Z,70.96
2022-12-31T16:44:47.235Z,71.00
2022-12-31T16:47:23.019Z,70.75
2022-12-31T16:49:56.549Z,70.75
2022-12-31T16:52:40.517Z,70.77
2022-12-31T16:55:13.026Z,70.09
2022-12-31T16:57:45.176Z,69.84
2022-12-31T17:00:20.750Z,69.75
2022-12-31T17:03:07.271Z,70.49
2022-12-31T17:05:58.064Z,70.87
2022-12-31T17:08:42.753Z,69.59
2022-12-31T17:11:23.588Z,70.12
2022-12-31T17:13:58.057Z,70.53
2022-12-31T17:16:28.552Z,70.54
2022-12-31T17:18:58.825Z,70.54
2022-12-31T17:21:31.232Z,70.40
2022-12-31T17:24:06.980Z,70.19
2022-12-31T17:26:38.935Z,70.27
2022-12-31T17:29:11.036Z,70.83
2022-12-31T17:31:43.194Z,70.59
2022-12-31T17:34:18.917Z,70.13
2022-12-31T17:37:16.045Z,70.13
2022-12-31T17:39:48.438Z,70.25
2022-12-31T17:42:33.259Z,68.91
2022-12-31T17:45:05.818Z,69.29
2022-12-31T17:47:38.320Z,69.22
2022-12-31T17:53:05.256Z,67.90
2022-12-31T17:55:35.242Z,68.26
2022-12-31T17:58:07.529Z,68.13
2022-12-31T18:00:38.577Z,67.79
2022-12-31T18:03:08.649Z,68.05
2022-12-31T18:05:38.789Z,67.13
2022-12-31T18:08:11.070Z,67.27
2022-12-31T18:10:43.949Z,67.27
2022-12-31T18:13:19.585Z,67.19
2022-12-31T18:15:49.814Z,66.69
2022-12-31T18:18:28.168Z,67.38
2022-12-31T18:21:06.283Z,66.69
2022-12-31T18:23:41.816Z,67.48
2022-12-31T18:26:20.569Z,66.36
2022-12-31T18:28:51.374Z,66.52
2022-12-31T18:31:23.547Z,66.66
2022-12-31T18:33:55.932Z,67.03
2022-12-31T18:36:26.797Z,66.08
2022-12-31T18:38:56.663Z,66.08
2022-12-31T18:41:29.220Z,65.51
2022-12-31T18:43:59.004Z,63.96
2022-12-31T18:46:28.927Z,64.72
2022-12-31T18:48:58.691Z,64.87
2022-12-31T18:51:32.020Z,64.01
2022-12-31T18:54:05.068Z,65.44
2022-12-31T18:56:34.815Z,64.71
2022-12-31T18:59:04.376Z,64.71
2022-12-31T19:01:37.301Z,64.40
2022-12-31T19:04:24.989Z,63.52
2022-12-31T19:06:51.085Z,63.80
2022-12-31T19:11:52.359Z,63.05
2022-12-31T19:14:25.712Z,63.05
2022-12-31T19:16:57.307Z,63.05
2022-12-31T19:19:27.255Z,63.11
2022-12-31T19:21:57.056Z,62.30
2022-12-31T19:24:27.945Z,62.57
2022-12-31T19:26:57.672Z,62.78
2022-12-31T19:29:28.839Z,61.49
2022-12-31T19:32:00.730Z,61.70
2022-12-31T19:34:30.608Z,62.64
2022-12-31T19:37:00.447Z,62.14
2022-12-31T19:39:30.319Z,62.31
2022-12-31T19:42:01.934Z,63.21
2022-12-31T19:44:31.897Z,62.61
2022-12-31T19:47:01.820Z,63.14
2022-12-31T19:49:31.573Z,62.60
2022-12-31T19:52:01.430Z,61.18
2022-12-31T19:54:31.561Z,61.41
2022-12-31T19:57:01.412Z,60.63
2022-12-31T19:59:31.239Z,61.23
2022-12-31T20:02:01.632Z,62.18
2022-12-31T20:04:31.630Z,60.16
2022-12-31T20:07:01.108Z,61.46
2022-12-31T20:09:30.940Z,60.44
2022-12-31T20:12:00.834Z,60.69
2022-12-31T20:14:30.677Z,61.52
2022-12-31T20:17:00.426Z,60.41
2022-12-31T20:19:30.246Z,60.13
2022-12-31T20:22:00.948Z,59.08
2022-12-31T20:24:30.793Z,59.20
2022-12-31T20:27:00.593Z,59.06
2022-12-31T20:29:30.476Z,58.67
2022-12-31T20:32:00.397Z,59.62
2022-12-31T20:34:30.287Z,58.89
2022-12-31T20:37:01.664Z,58.89
2022-12-31T20:39:31.690Z,58.82
2022-12-31T20:42:01.685Z,58.67
2022-12-31T20:44:31.609Z,58.36
2022-12-31T20:47:01.456Z,58.36
2022-12-31T20:50:09.189Z,58.67
2022-12-31T20:52:04.621Z,58.01
2022-12-31T20:54:34.251Z,58.68
2022-12-31T20:57:04.257Z,58.40
2022-12-31T20:59:34.330Z,58.54
2022-12-31T21:02:24.351Z,57.76
2022-12-31T21:04:38.463Z,58.32
2022-12-31T21:07:08.957Z,57.35
2022-12-31T21:09:38.804Z,56.90
2022-12-31T21:12:29.929Z,56.70
2022-12-31T21:14:59.597Z,57.81
2022-12-31T21:17:29.927Z,56.96
2022-12-31T21:19:59.516Z,56.45
2022-12-31T21:22:30.030Z,56.82
2022-12-31T21:25:01.025Z,57.14
2022-12-31T21:27:31.202Z,56.70
2022-12-31T21:30:18.238Z,56.10
2022-12-31T21:32:32.766Z,56.62
2022-12-31T21:35:40.309Z,56.36
2022-12-31T21:37:57.495Z,56.78
2022-12-31T21:40:08.371Z,55.38
2022-12-31T21:42:38.122Z,55.72
2022-12-31T21:45:08.803Z,56.18
2022-12-31T21:47:56.461Z,55.91
2022-12-31T21:50:26.477Z,55.63
2022-12-31T21:52:56.211Z,55.06
2022-12-31T21:55:43.789Z,55.08
2022-12-31T21:58:25.683Z,55.90
2022-12-31T22:01:03.963Z,54.48
2022-12-31T22:03:33.793Z,54.82
2022-12-31T22:06:16.118Z,54.13
2022-12-31T22:08:48.088Z,54.28
2022-12-31T22:11:19.815Z,54.03
2022-12-31T22:13:50.026Z,54.40
2022-12-31T22:16:20.370Z,54.21
2022-12-31T22:18:50.936Z,54.74
2022-12-31T22:21:24.790Z,54.36
2022-12-31T22:23:56.414Z,54.18
2022-12-31T22:26:29.273Z,54.07
2022-12-31T22:28:59.822Z,54.34
2022-12-31T22:31:31.409Z,53.95
2022-12-31T22:34:01.861Z,54.78
2022-12-31T22:36:31.668Z,54.94
2022-12-31T22:39:01.225Z,54.10
2022-12-31T22:41:30.959Z,54.20
2022-12-31T22:44:04.149Z,54.62
2022-12-31T22:46:33.499Z,54.66
2022-12-31T22:49:05.123Z,54.32
2022-12-31T22:51:56.045Z,54.17
2022-12-31T22:54:08.163Z,53.85
2022-12-31T22:56:37.992Z,53.40
2022-12-31T22:59:07.736Z,53.83
2022-12-31T23:01:38.334Z,54.14
2022-12-31T23:04:09.890Z,53.23
2022-12-31T23:06:41.551Z,54.31
2022-12-31T23:09:31.152Z,54.03
2022-12-31T23:12:01.275Z,53.49
2022-12-31T23:14:48.319Z,53.80
2022-12-31T23:17:38.807Z,53.75
2022-12-31T23:20:30.291Z,53.92
2022-12-31T23:23:09.772Z,53.09
2022-12-31T23:25:45.087Z,53.71
2022-12-31T23:28:23.546Z,54.26
2022-12-31T23:30:54.206Z,53.62
2022-12-31T23:33:27.459Z,53.39
2022-12-31T23:36:05.894Z,53.90
2022-12-31T23:38:35.705Z,54.47
2022-12-31T23:41:15.852Z,53.78
2022-12-31T23:43:46.411Z,52.96
2022-12-31T23:46:20.693Z,53.53
2022-12-31T23:48:50.532Z,54.21
2022-12-31T23:51:20.555Z,54.46
2022-12-31T23:53:51.473Z,54.05
2022-12-31T23:56:23.924Z,54.32
2022-12-31T23:58:59.620Z,53.62
